Time;durP1;ratioP1;P1;durP2;ratioP2;P2;SDS_P1;SDS_P2;PMS_P1;PMS_P2;Temp;Humidity;BMP_temperature;BMP_pressure;BME280_temperature;BME280_humidity;BME280_pressure;Samples;Min_cycle;Max_cycle;Signal;HPM_P1;HPM_P2
2023/02/10 00:02:02;;;;;;;;;;;;;;;;;;4971774;28;19917;-77
2023/02/10 00:07:42;;;;;;;;;;;;;;;;;;4972844;28;20288;-75
2023/02/10 00:10:08;;;;;;;;;;;;;;;;;;4960370;28;19918;-75
2023/02/10 00:12:44;;;;;;;;;;;;;;;;;;4966972;28;19956;-72
2023/02/10 00:15:10;;;;;;;;;;;;;;;;;;4958603;28;19922;-75
2023/02/10 00:17:36;;;;;;;;;;;;;;;;;;4975411;28;19945;-75
2023/02/10 00:20:03;;;;;;;;;;;;;;;;;;4972222;28;19925;-74
2023/02/10 00:22:29;;;;;;;;;;;;;;;;;;4979466;28;19921;-75
2023/02/10 00:24:55;;;;;;;;;;;;;;;;;;4978931;28;19914;-76
2023/02/10 00:27:24;;;;;;;;;;;;;;;;;;4968570;28;20144;-75
2023/02/10 00:29:50;;;;;;;;;;;;;;;;;;4980927;28;19914;-75
2023/02/10 00:32:17;;;;;;;;;;;;;;;;;;4969658;28;20370;-76
2023/02/10 00:34:43;;;;;;;;;;;;;;;;;;4961570;28;20392;-75
2023/02/10 00:37:12;;;;;;;;;;;;;;;;;;4970302;28;20591;-76
2023/02/10 00:39:38;;;;;;;;;;;;;;;;;;4975963;28;20341;-75
2023/02/10 00:42:04;;;;;;;;;;;;;;;;;;4971295;28;19919;-75
2023/02/10 00:44:31;;;;;;;;;;;;;;;;;;4980613;28;20381;-75
2023/02/10 00:46:57;;;;;;;;;;;;;;;;;;4972760;28;19922;-76
2023/02/10 00:49:23;;;;;;;;;;;;;;;;;;4976478;28;19991;-75
2023/02/10 00:51:49;;;;;;;;;;;;;;;;;;4976814;28;19997;-75
2023/02/10 00:54:16;;;;;;;;;;;;;;;;;;4968883;28;20511;-75
2023/02/10 00:56:42;;;;;;;;;;;;;;;;;;4976690;28;19921;-76
2023/02/10 00:59:08;;;;;;;;;;;;;;;;;;4968952;28;19925;-75
2023/02/10 01:01:35;;;;;;;;;;;;;;;;;;4971558;28;19925;-75
2023/02/10 01:04:01;;;;;;;;;;;;;;;;;;4987045;28;20341;-76
2023/02/10 01:06:27;;;;;;;;;;;;;;;;;;4969480;28;19921;-75
2023/02/10 01:08:53;;;;;;;;;;;;;;;;;;4967007;28;19922;-74
2023/02/10 01:11:20;;;;;;;;;;;;;;;;;;4967487;28;19925;-74
2023/02/10 01:13:46;;;;;;;;;;;;;;;;;;4985995;28;19917;-74
2023/02/10 01:16:13;;;;;;;;;;;;;;;;;;4961758;28;19966;-74
2023/02/10 01:18:39;;;;;;;;;;;;;;;;;;4971789;28;19936;-75
2023/02/10 01:21:05;;;;;;;;;;;;;;;;;;4967149;28;19922;-75
2023/02/10 01:23:31;;;;;;;;;;;;;;;;;;4980816;28;19967;-75
2023/02/10 01:25:58;;;;;;;;;;;;;;;;;;4984514;28;19921;-74
2023/02/10 01:28:24;;;;;;;;;;;;;;;;;;4985844;28;19925;-74
2023/02/10 01:30:50;;;;;;;;;;;;;;;;;;4977029;28;19918;-74
2023/02/10 01:33:16;;;;;;;;;;;;;;;;;;4968683;28;19925;-75
2023/02/10 01:35:43;;;;;;;;;;;;;;;;;;4966418;28;20441;-76
2023/02/10 01:38:09;;;;;;;;;;;;;;;;;;4965221;28;19969;-75
2023/02/10 01:40:35;;;;;;;;;;;;;;;;;;4970216;28;19922;-75
2023/02/10 01:43:01;;;;;;;;;;;;;;;;;;4958883;28;19918;-75
2023/02/10 01:45:28;;;;;;;;;;;;;;;;;;4961462;28;19918;-75
2023/02/10 01:47:54;;;;;;;;;;;;;;;;;;4980482;28;19922;-75
2023/02/10 01:50:20;;;;;;;;;;;;;;;;;;4973296;28;19969;-75
2023/02/10 01:52:46;;;;;;;;;;;;;;;;;;4971651;28;19961;-75
2023/02/10 01:55:13;;;;;;;;;;;;;;;;;;4967735;28;20389;-75
2023/02/10 01:57:39;;;;;;;;;;;;;;;;;;4972331;28;19922;-74
2023/02/10 02:00:05;;;;;;;;;;;;;;;;;;4969016;28;19921;-74
2023/02/10 02:02:34;;;;;;;;;;;;;;;;;;4950664;28;19930;-74
2023/02/10 02:05:01;;;;;;;;;;;;;;;;;;4966385;28;19914;-74
2023/02/10 02:07:27;;;;;;;;;;;;;;;;;;4979380;28;19981;-74
2023/02/10 02:09:53;;;;;;;;;;;;;;;;;;4981699;28;20526;-74
2023/02/10 02:12:19;;;;;;;;;;;;;;;;;;4969760;28;19922;-75
2023/02/10 02:14:45;;;;;;;;;;;;;;;;;;4991731;28;19964;-75
2023/02/10 02:17:12;;;;;;;;;;;;;;;;;;4986856;28;20159;-75
2023/02/10 02:19:38;;;;;;;;;;;;;;;;;;4952018;28;19926;-75
2023/02/10 02:22:04;;;;;;;;;;;;;;;;;;4958922;28;19930;-75
2023/02/10 02:24:30;;;;;;;;;;;;;;;;;;4987229;28;19922;-75
2023/02/10 02:26:57;;;;;;;;;;;;;;;;;;4986663;28;20029;-74
2023/02/10 02:29:23;;;;;;;;;;;;;;;;;;4967540;28;19918;-75
2023/02/10 02:31:49;;;;;;;;;;;;;;;;;;4961216;28;19958;-76
2023/02/10 02:34:15;;;;;;;;;;;;;;;;;;4962563;28;19918;-74
2023/02/10 02:36:42;;;;;;;;;;;;;;;;;;4946990;28;20281;-74
2023/02/10 02:39:08;;;;;;;;;;;;;;;;;;4966534;28;19917;-74
2023/02/10 02:41:34;;;;;;;;;;;;;;;;;;4969414;28;19922;-75
2023/02/10 02:44:00;;;;;;;;;;;;;;;;;;4981378;28;19922;-75
2023/02/10 02:46:27;;;;;;;;;;;;;;;;;;4969307;28;19965;-74
2023/02/10 02:48:53;;;;;;;;;;;;;;;;;;4970378;28;20437;-75
2023/02/10 02:51:19;;;;;;;;;;;;;;;;;;4996156;28;19956;-74
2023/02/10 02:53:45;;;;;;;;;;;;;;;;;;4968618;28;20397;-74
2023/02/10 02:56:12;;;;;;;;;;;;;;;;;;4962304;28;19918;-74
2023/02/10 02:58:38;;;;;;;;;;;;;;;;;;4964746;28;19933;-74
2023/02/10 03:01:05;;;;;;;;;;;;;;;;;;4971099;28;20330;-76
2023/02/10 03:03:31;;;;;;;;;;;;;;;;;;4955824;28;20378;-75
2023/02/10 03:05:57;;;;;;;;;;;;;;;;;;4968859;28;19969;-75
2023/02/10 03:08:23;;;;;;;;;;;;;;;;;;4994473;28;19929;-75
2023/02/10 03:10:49;;;;;;;;;;;;;;;;;;4966957;28;19922;-76
2023/02/10 03:13:16;;;;;;;;;;;;;;;;;;4972173;28;19925;-76
2023/02/10 03:15:43;;;;;;;;;;;;;;;;;;4971491;28;19918;-75
2023/02/10 03:18:09;;;;;;;;;;;;;;;;;;4972176;28;19932;-75
2023/02/10 03:20:35;;;;;;;;;;;;;;;;;;4964204;28;20456;-76
2023/02/10 03:23:01;;;;;;;;;;;;;;;;;;4970482;28;19932;-76
2023/02/10 03:25:28;;;;;;;;;;;;;;;;;;4991464;28;19918;-74
2023/02/10 03:27:54;;;;;;;;;;;;;;;;;;4967868;28;19917;-75
2023/02/10 03:30:20;;;;;;;;;;;;;;;;;;4988925;28;19941;-74
2023/02/10 03:32:48;;;;;;;;;;;;;;;;;;4987384;28;20467;-75
2023/02/10 03:35:14;;;;;;;;;;;;;;;;;;4984696;28;19913;-75
2023/02/10 03:37:40;;;;;;;;;;;;;;;;;;4997679;28;19918;-75
2023/02/10 03:40:07;;;;;;;;;;;;;;;;;;4967849;28;19929;-74
2023/02/10 03:42:33;;;;;;;;;;;;;;;;;;4988165;28;20189;-75
2023/02/10 03:44:59;;;;;;;;;;;;;;;;;;4984470;28;19945;-74
2023/02/10 03:47:25;;;;;;;;;;;;;;;;;;4972700;28;19941;-75
2023/02/10 03:49:51;;;;;;;;;;;;;;;;;;4974864;28;19939;-74
2023/02/10 03:52:18;;;;;;;;;;;;;;;;;;4980643;28;19922;-75
2023/02/10 03:54:44;;;;;;;;;;;;;;;;;;4965096;28;19940;-74
2023/02/10 03:57:10;;;;;;;;;;;;;;;;;;4971991;28;19921;-75
2023/02/10 03:59:36;;;;;;;;;;;;;;;;;;4970828;28;20002;-74
2023/02/10 04:02:03;;;;;;;;;;;;;;;;;;4987985;28;20065;-75
2023/02/10 04:04:29;;;;;;;;;;;;;;;;;;4959852;28;19924;-76
2023/02/10 04:06:55;;;;;;;;;;;;;;;;;;4966392;28;19950;-74
2023/02/10 04:09:21;;;;;;;;;;;;;;;;;;4969797;28;19914;-75
2023/02/10 04:11:47;;;;;;;;;;;;;;;;;;4981922;28;20274;-75
2023/02/10 04:14:14;;;;;;;;;;;;;;;;;;4967446;28;20015;-75
2023/02/10 04:16:40;;;;;;;;;;;;;;;;;;4966641;28;19937;-75
2023/02/10 04:19:07;;;;;;;;;;;;;;;;;;4966000;28;19942;-75
2023/02/10 04:21:33;;;;;;;;;;;;;;;;;;4982200;28;19985;-75
2023/02/10 04:23:59;;;;;;;;;;;;;;;;;;4968479;28;19918;-75
2023/02/10 04:26:25;;;;;;;;;;;;;;;;;;4980960;28;20386;-75
2023/02/10 04:28:51;;;;;;;;;;;;;;;;;;4974873;28;19928;-75
2023/02/10 04:31:18;;;;;;;;;;;;;;;;;;4982471;28;19918;-75
2023/02/10 04:33:44;;;;;;;;;;;;;;;;;;4976655;28;19922;-75
2023/02/10 04:36:10;;;;;;;;;;;;;;;;;;4982471;28;19918;-75
2023/02/10 04:38:36;;;;;;;;;;;;;;;;;;4981335;28;19922;-75
2023/02/10 04:41:04;;;;;;;;;;;;;;;;;;4959219;28;19922;-75
2023/02/10 04:43:30;;;;;;;;;;;;;;;;;;4968418;28;19972;-75
2023/02/10 04:45:57;;;;;;;;;;;;;;;;;;4965162;28;19922;-75
2023/02/10 04:48:23;;;;;;;;;;;;;;;;;;4979816;28;20474;-75
2023/02/10 04:50:50;;;;;;;;;;;;;;;;;;4964828;28;19961;-75
2023/02/10 04:53:16;;;;;;;;;;;;;;;;;;4960370;28;19956;-75
2023/02/10 04:55:42;;;;;;;;;;;;;;;;;;4956987;28;20675;-74
2023/02/10 04:58:08;;;;;;;;;;;;;;;;;;4962846;28;20389;-74
2023/02/10 05:00:35;;;;;;;;;;;;;;;;;;4975321;28;20020;-78
2023/02/10 05:03:01;;;;;;;;;;;;;;;;;;4965779;28;19921;-74
2023/02/10 05:05:27;;;;;;;;;;;;;;;;;;4979466;28;20660;-74
2023/02/10 05:07:53;;;;;;;;;;;;;;;;;;4976815;28;19926;-76
2023/02/10 05:10:19;;;;;;;;;;;;;;;;;;4979693;28;19913;-76
2023/02/10 05:12:46;;;;;;;;;;;;;;;;;;4965475;28;19922;-75
2023/02/10 05:15:13;;;;;;;;;;;;;;;;;;4965871;28;19937;-76
2023/02/10 05:17:39;;;;;;;;;;;;;;;;;;4954051;28;19973;-76
2023/02/10 05:20:08;;;;;;;;;;;;;;;;;;4932742;28;19919;-76
2023/02/10 05:22:34;;;;;;;;;;;;;;;;;;4936777;28;19922;-75
2023/02/10 05:25:00;;;;;;;;;;;;;;;;;;4948408;28;20436;-74
2023/02/10 05:27:26;;;;;;;;;;;;;;;;;;4949095;28;19945;-75
2023/02/10 05:29:53;;;;;;;;;;;;;;;;;;4968513;28;19973;-75
2023/02/10 05:32:19;;;;;;;;;;;;;;;;;;4951894;28;19922;-74
2023/02/10 05:34:45;;;;;;;;;;;;;;;;;;4958405;28;19921;-74
2023/02/10 05:37:11;;;;;;;;;;;;;;;;;;4966188;28;19914;-75
2023/02/10 05:39:38;;;;;;;;;;;;;;;;;;4960863;28;19922;-75
2023/02/10 05:42:04;;;;;;;;;;;;;;;;;;4946689;28;20029;-75
2023/02/10 05:44:31;;;;;;;;;;;;;;;;;;4953735;28;20350;-73
2023/02/10 05:46:57;;;;;;;;;;;;;;;;;;4947683;28;19959;-75
2023/02/10 05:49:23;;;;;;;;;;;;;;;;;;4927861;28;19973;-74
2023/02/10 05:51:49;;;;;;;;;;;;;;;;;;4952672;28;19918;-76
2023/02/10 05:54:16;;;;;;;;;;;;;;;;;;4951224;28;19984;-74
2023/02/10 05:56:42;;;;;;;;;;;;;;;;;;4949315;28;19922;-76
2023/02/10 05:59:08;;;;;;;;;;;;;;;;;;4939486;28;19922;-74
2023/02/10 06:01:34;;;;;;;;;;;;;;;;;;4945938;28;19989;-76
2023/02/10 06:04:00;;;;;;;;;;;;;;;;;;4966154;28;20467;-74
2023/02/10 06:06:27;;;;;;;;;;;;;;;;;;4960769;28;20704;-74
2023/02/10 06:08:53;;;;;;;;;;;;;;;;;;4946575;28;19922;-75
2023/02/10 06:11:19;;;;;;;;;;;;;;;;;;4942292;28;19914;-75
2023/02/10 06:13:45;;;;;;;;;;;;;;;;;;4947110;28;19918;-75
2023/02/10 06:16:11;;;;;;;;;;;;;;;;;;4939731;28;19966;-75
2023/02/10 06:18:38;;;;;;;;;;;;;;;;;;4949793;28;19934;-75
2023/02/10 06:21:04;;;;;;;;;;;;;;;;;;4972709;28;19934;-75
2023/02/10 06:23:30;;;;;;;;;;;;;;;;;;4963573;28;19926;-76
2023/02/10 06:25:57;;;;;;;;;;;;;;;;;;4954416;28;19986;-75
2023/02/10 06:28:24;;;;;;;;;;;;;;;;;;4956681;28;19974;-75
2023/02/10 06:30:50;;;;;;;;;;;;;;;;;;4938043;28;19929;-73
2023/02/10 06:33:16;;;;;;;;;;;;;;;;;;4941646;28;19926;-73
2023/02/10 06:35:43;;;;;;;;;;;;;;;;;;4947499;28;20385;-74
2023/02/10 06:38:09;;;;;;;;;;;;;;;;;;4952759;28;19966;-74
2023/02/10 06:40:35;;;;;;;;;;;;;;;;;;4957877;28;20076;-74
2023/02/10 06:43:01;;;;;;;;;;;;;;;;;;4969568;28;21001;-74
2023/02/10 06:45:28;;;;;;;;;;;;;;;;;;4963719;28;20688;-73
2023/02/10 06:47:54;;;;;;;;;;;;;;;;;;4935445;28;20585;-73
2023/02/10 06:50:20;;;;;;;;;;;;;;;;;;4947611;28;21018;-73
2023/02/10 06:52:46;;;;;;;;;;;;;;;;;;4951477;28;19950;-73
2023/02/10 06:55:12;;;;;;;;;;;;;;;;;;4971299;28;19935;-74
2023/02/10 06:57:39;;;;;;;;;;;;;;;;;;4959453;28;19961;-74
2023/02/10 07:00:07;;;;;;;;;;;;;;;;;;4954265;28;19925;-74
2023/02/10 07:02:33;;;;;;;;;;;;;;;;;;4935637;28;20001;-74
2023/02/10 07:04:59;;;;;;;;;;;;;;;;;;4951105;28;20031;-73
2023/02/10 07:07:25;;;;;;;;;;;;;;;;;;4959094;28;19918;-74
2023/02/10 07:09:53;;;;;;;;;;;;;;;;;;4957624;28;19933;-76
2023/02/10 07:12:19;;;;;;;;;;;;;;;;;;4968896;28;19925;-75
2023/02/10 07:14:45;;;;;;;;;;;;;;;;;;4968515;28;19925;-76
2023/02/10 07:17:11;;;;;;;;;;;;;;;;;;4944611;28;19977;-76
2023/02/10 07:19:37;;;;;;;;;;;;;;;;;;4937511;28;20016;-77
2023/02/10 07:22:06;;;;;;;;;;;;;;;;;;4952133;28;19942;-76
2023/02/10 07:24:32;;;;;;;;;;;;;;;;;;4960082;28;20438;-78
2023/02/10 07:26:58;;;;;;;;;;;;;;;;;;4952007;28;19977;-76
2023/02/10 07:29:24;;;;;;;;;;;;;;;;;;4949038;28;20394;-76
2023/02/10 07:31:51;;;;;;;;;;;;;;;;;;4957939;28;19926;-76
2023/02/10 07:34:19;;;;;;;;;;;;;;;;;;4948828;28;19958;-76
2023/02/10 07:36:45;;;;;;;;;;;;;;;;;;4960580;28;19933;-76
2023/02/10 07:39:11;;;;;;;;;;;;;;;;;;4957348;28;19986;-76
2023/02/10 07:41:38;;;;;;;;;;;;;;;;;;4955574;28;20630;-76
2023/02/10 07:44:04;;;;;;;;;;;;;;;;;;4947562;28;19926;-76
2023/02/10 07:46:30;;;;;;;;;;;;;;;;;;4944177;28;19958;-76
2023/02/10 07:48:56;;;;;;;;;;;;;;;;;;4974483;28;20739;-76
2023/02/10 07:51:22;;;;;;;;;;;;;;;;;;4965264;28;19966;-76
2023/02/10 07:53:49;;;;;;;;;;;;;;;;;;4970729;28;19929;-76
2023/02/10 07:56:15;;;;;;;;;;;;;;;;;;4958507;28;20012;-76
2023/02/10 07:58:41;;;;;;;;;;;;;;;;;;4963674;28;20421;-75
2023/02/10 08:01:07;;;;;;;;;;;;;;;;;;4948911;28;20329;-75
2023/02/10 08:03:33;;;;;;;;;;;;;;;;;;4966316;28;19949;-76
2023/02/10 08:06:00;;;;;;;;;;;;;;;;;;4961347;28;20021;-76
2023/02/10 08:08:26;;;;;;;;;;;;;;;;;;4951932;28;20638;-75
2023/02/10 08:10:52;;;;;;;;;;;;;;;;;;4956148;28;19930;-75
2023/02/10 08:13:18;;;;;;;;;;;;;;;;;;4968796;28;20389;-77
2023/02/10 08:15:45;;;;;;;;;;;;;;;;;;4941384;28;19918;-77
2023/02/10 08:18:11;;;;;;;;;;;;;;;;;;4957916;28;19926;-76
2023/02/10 08:20:37;;;;;;;;;;;;;;;;;;4953390;28;19945;-75
2023/02/10 08:23:03;;;;;;;;;;;;;;;;;;4987091;28;19918;-76
2023/02/10 08:25:30;;;;;;;;;;;;;;;;;;4962992;28;19923;-76
2023/02/10 08:27:56;;;;;;;;;;;;;;;;;;4972548;28;19918;-76
2023/02/10 08:30:22;;;;;;;;;;;;;;;;;;4981659;28;19941;-76
2023/02/10 08:32:48;;;;;;;;;;;;;;;;;;4972890;28;19923;-76
2023/02/10 08:35:15;;;;;;;;;;;;;;;;;;4970423;28;19928;-76
2023/02/10 08:37:41;;;;;;;;;;;;;;;;;;4980143;28;19918;-76
2023/02/10 08:40:07;;;;;;;;;;;;;;;;;;4971507;28;19929;-76
2023/02/10 08:42:33;;;;;;;;;;;;;;;;;;4963998;28;19969;-75
2023/02/10 08:44:59;;;;;;;;;;;;;;;;;;4942093;28;19973;-75
2023/02/10 08:47:26;;;;;;;;;;;;;;;;;;4983130;28;19940;-76
2023/02/10 08:49:52;;;;;;;;;;;;;;;;;;4967787;28;20245;-75
2023/02/10 08:52:20;;;;;;;;;;;;;;;;;;4958943;28;20437;-76
2023/02/10 08:54:47;;;;;;;;;;;;;;;;;;4976900;28;20000;-75
2023/02/10 08:57:13;;;;;;;;;;;;;;;;;;4974600;28;19930;-75
2023/02/10 08:59:39;;;;;;;;;;;;;;;;;;4960148;28;19921;-75
2023/02/10 09:02:05;;;;;;;;;;;;;;;;;;4981677;28;20478;-74
2023/02/10 09:04:32;;;;;;;;;;;;;;;;;;4960146;28;19925;-76
2023/02/10 09:06:58;;;;;;;;;;;;;;;;;;4987372;28;19945;-77
2023/02/10 09:09:26;;;;;;;;;;;;;;;;;;4976707;28;19919;-76
2023/02/10 09:11:53;;;;;;;;;;;;;;;;;;4988544;28;19926;-76
2023/02/10 09:14:19;;;;;;;;;;;;;;;;;;4982466;28;20286;-76
2023/02/10 09:16:45;;;;;;;;;;;;;;;;;;4966760;28;19921;-76
2023/02/10 09:19:12;;;;;;;;;;;;;;;;;;4960580;28;19934;-76
2023/02/10 09:21:38;;;;;;;;;;;;;;;;;;4980957;28;19945;-76
2023/02/10 09:24:04;;;;;;;;;;;;;;;;;;4979994;28;19929;-76
2023/02/10 09:26:30;;;;;;;;;;;;;;;;;;4992372;28;19914;-77
2023/02/10 09:28:57;;;;;;;;;;;;;;;;;;4963452;28;19925;-77
2023/02/10 09:31:24;;;;;;;;;;;;;;;;;;4969861;28;19918;-76
2023/02/10 09:33:50;;;;;;;;;;;;;;;;;;4965708;28;19922;-75
2023/02/10 09:36:16;;;;;;;;;;;;;;;;;;4969181;28;20627;-76
2023/02/10 09:38:42;;;;;;;;;;;;;;;;;;4958356;28;19919;-75
2023/02/10 09:41:09;;;;;;;;;;;;;;;;;;4962360;28;19929;-75
2023/02/10 09:43:35;;;;;;;;;;;;;;;;;;4956144;28;20472;-75
2023/02/10 09:46:01;;;;;;;;;;;;;;;;;;4968764;28;19922;-75
2023/02/10 09:48:28;;;;;;;;;;;;;;;;;;4974005;28;19992;-76
2023/02/10 09:50:54;;;;;;;;;;;;;;;;;;4953183;28;19929;-75
2023/02/10 09:53:21;;;;;;;;;;;;;;;;;;4968584;28;19956;-74
2023/02/10 09:55:47;;;;;;;;;;;;;;;;;;4958981;28;20015;-74
2023/02/10 09:58:13;;;;;;;;;;;;;;;;;;4967291;28;20512;-75
2023/02/10 10:00:40;;;;;;;;;;;;;;;;;;4975074;28;19976;-74
2023/02/10 10:03:06;;;;;;;;;;;;;;;;;;4974159;28;19929;-75
2023/02/10 10:05:32;;;;;;;;;;;;;;;;;;4988214;28;19922;-75
2023/02/10 10:07:58;;;;;;;;;;;;;;;;;;4972835;28;20009;-73
2023/02/10 10:10:25;;;;;;;;;;;;;;;;;;4976279;28;20569;-74
2023/02/10 10:12:51;;;;;;;;;;;;;;;;;;4977179;28;19922;-74
2023/02/10 10:15:17;;;;;;;;;;;;;;;;;;4974916;28;19921;-74
2023/02/10 10:17:44;;;;;;;;;;;;;;;;;;4994818;28;19937;-74
2023/02/10 10:20:10;;;;;;;;;;;;;;;;;;4981962;28;19917;-74
2023/02/10 10:22:36;;;;;;;;;;;;;;;;;;4994911;28;19926;-74
2023/02/10 10:25:02;;;;;;;;;;;;;;;;;;4981335;28;20004;-74
2023/02/10 10:27:29;;;;;;;;;;;;;;;;;;4979764;28;19921;-73
2023/02/10 10:29:55;;;;;;;;;;;;;;;;;;4980647;28;20771;-73
2023/02/10 10:32:23;;;;;;;;;;;;;;;;;;4994238;28;19921;-73
2023/02/10 10:34:50;;;;;;;;;;;;;;;;;;4981313;28;21415;-74
2023/02/10 10:37:16;;;;;;;;;;;;;;;;;;4974361;28;19921;-74
2023/02/10 10:39:42;;;;;;;;;;;;;;;;;;4978130;28;19926;-73
2023/02/10 10:42:08;;;;;;;;;;;;;;;;;;4979280;28;19988;-74
2023/02/10 10:44:35;;;;;;;;;;;;;;;;;;4995542;28;19929;-74
2023/02/10 10:47:01;;;;;;;;;;;;;;;;;;4975330;28;20476;-74
2023/02/10 10:49:27;;;;;;;;;;;;;;;;;;4979772;28;19921;-73
2023/02/10 10:51:54;;;;;;;;;;;;;;;;;;4981000;28;19940;-74
2023/02/10 10:54:20;;;;;;;;;;;;;;;;;;4980596;28;19925;-74
2023/02/10 10:56:49;;;;;;;;;;;;;;;;;;4994740;28;19921;-73
2023/02/10 10:59:16;;;;;;;;;;;;;;;;;;4995433;28;19926;-73
2023/02/10 11:01:43;;;;;;;;;;;;;;;;;;4994208;28;20017;-74
2023/02/10 11:04:09;;;;;;;;;;;;;;;;;;4962487;28;20304;-74
2023/02/10 11:06:35;;;;;;;;;;;;;;;;;;4994879;28;19976;-73
2023/02/10 11:09:02;;;;;;;;;;;;;;;;;;4996700;28;19925;-74
2023/02/10 11:11:28;;;;;;;;;;;;;;;;;;4962054;28;19937;-74
2023/02/10 11:13:54;;;;;;;;;;;;;;;;;;4997899;28;19967;-74
2023/02/10 11:16:20;;;;;;;;;;;;;;;;;;4996509;28;20439;-74
2023/02/10 11:18:46;;;;;;;;;;;;;;;;;;4996821;28;20313;-74
2023/02/10 11:21:15;;;;;;;;;;;;;;;;;;4979017;28;20305;-74
2023/02/10 11:23:41;;;;;;;;;;;;;;;;;;4999943;28;19921;-74
2023/02/10 11:26:07;;;;;;;;;;;;;;;;;;4993017;28;19921;-74
2023/02/10 11:28:35;;;;;;;;;;;;;;;;;;4993379;28;19917;-74
2023/02/10 11:31:02;;;;;;;;;;;;;;;;;;4978867;28;19921;-74
2023/02/10 11:33:28;;;;;;;;;;;;;;;;;;4996157;28;19926;-74
2023/02/10 11:35:54;;;;;;;;;;;;;;;;;;4998337;28;19926;-74
2023/02/10 11:38:20;;;;;;;;;;;;;;;;;;4980101;28;19918;-74
2023/02/10 11:40:47;;;;;;;;;;;;;;;;;;5002159;28;19969;-74
2023/02/10 11:43:13;;;;;;;;;;;;;;;;;;5001829;28;19930;-74
2023/02/10 11:45:39;;;;;;;;;;;;;;;;;;5002410;28;19961;-74
2023/02/10 11:48:06;;;;;;;;;;;;;;;;;;4996986;28;20420;-74
2023/02/10 11:50:32;;;;;;;;;;;;;;;;;;4999836;28;19992;-74
2023/02/10 11:52:58;;;;;;;;;;;;;;;;;;4999719;28;19925;-74
2023/02/10 11:55:24;;;;;;;;;;;;;;;;;;4999337;28;19964;-74
2023/02/10 12:00:36;;;;;;;;;;;;;;;;;;4983969;28;19991;-74
2023/02/10 12:03:04;;;;;;;;;;;;;;;;;;4998214;28;20040;-74
2023/02/10 12:05:30;;;;;;;;;;;;;;;;;;4997348;28;20023;-74
2023/02/10 12:07:56;;;;;;;;;;;;;;;;;;4982291;28;19918;-74
2023/02/10 12:10:22;;;;;;;;;;;;;;;;;;4999225;28;19957;-73
2023/02/10 12:12:49;;;;;;;;;;;;;;;;;;4998712;28;19921;-73
2023/02/10 12:15:15;;;;;;;;;;;;;;;;;;4998395;28;19922;-73
2023/02/10 12:17:41;;;;;;;;;;;;;;;;;;4982030;28;20318;-73
2023/02/10 12:20:07;;;;;;;;;;;;;;;;;;4977924;28;20000;-74
2023/02/10 12:22:33;;;;;;;;;;;;;;;;;;4996203;28;19929;-74
2023/02/10 12:25:00;;;;;;;;;;;;;;;;;;4981014;28;19922;-74
2023/02/10 12:27:26;;;;;;;;;;;;;;;;;;4995564;28;20674;-74
2023/02/10 12:29:52;;;;;;;;;;;;;;;;;;4977144;28;19921;-74
2023/02/10 12:32:18;;;;;;;;;;;;;;;;;;4980050;28;19921;-74
2023/02/10 12:34:45;;;;;;;;;;;;;;;;;;4978882;28;19918;-73
2023/02/10 12:37:11;;;;;;;;;;;;;;;;;;4979900;28;19961;-73
2023/02/10 12:39:37;;;;;;;;;;;;;;;;;;4996673;28;19976;-73
2023/02/10 12:42:03;;;;;;;;;;;;;;;;;;4997952;28;19921;-74
2023/02/10 12:44:30;;;;;;;;;;;;;;;;;;4982997;28;19918;-74
2023/02/10 12:46:56;;;;;;;;;;;;;;;;;;4992864;28;20365;-74
2023/02/10 12:49:22;;;;;;;;;;;;;;;;;;4977835;28;19964;-73
2023/02/10 12:51:48;;;;;;;;;;;;;;;;;;4996466;28;19921;-74
2023/02/10 12:54:15;;;;;;;;;;;;;;;;;;4991775;28;19941;-74
2023/02/10 12:56:41;;;;;;;;;;;;;;;;;;4991671;28;19937;-73
2023/02/10 12:59:07;;;;;;;;;;;;;;;;;;4974177;28;19941;-74
2023/02/10 13:01:34;;;;;;;;;;;;;;;;;;4993614;28;19936;-74
2023/02/10 13:04:01;;;;;;;;;;;;;;;;;;4975858;28;21409;-74
2023/02/10 13:06:27;;;;;;;;;;;;;;;;;;4985750;28;19918;-74
2023/02/10 13:08:53;;;;;;;;;;;;;;;;;;4995062;28;20435;-74
2023/02/10 13:11:19;;;;;;;;;;;;;;;;;;4996817;28;19967;-73
2023/02/10 13:13:46;;;;;;;;;;;;;;;;;;4998604;28;19968;-74
2023/02/10 13:16:13;;;;;;;;;;;;;;;;;;4996521;28;19999;-73
2023/02/10 13:18:39;;;;;;;;;;;;;;;;;;4981107;28;19988;-73
2023/02/10 13:21:05;;;;;;;;;;;;;;;;;;4977849;28;19926;-73
2023/02/10 13:23:31;;;;;;;;;;;;;;;;;;4999288;28;20517;-74
2023/02/10 13:25:58;;;;;;;;;;;;;;;;;;4977829;28;19930;-75
2023/02/10 13:28:24;;;;;;;;;;;;;;;;;;4983805;28;19918;-74
2023/02/10 13:30:50;;;;;;;;;;;;;;;;;;4981405;28;19971;-73
2023/02/10 13:33:17;;;;;;;;;;;;;;;;;;4996867;28;19917;-73
2023/02/10 13:35:43;;;;;;;;;;;;;;;;;;4978539;28;19985;-73
2023/02/10 13:38:09;;;;;;;;;;;;;;;;;;4986212;28;20060;-74
2023/02/10 13:40:35;;;;;;;;;;;;;;;;;;4991586;28;20495;-74
2023/02/10 13:43:02;;;;;;;;;;;;;;;;;;4995146;28;20440;-74
2023/02/10 13:45:29;;;;;;;;;;;;;;;;;;4986099;28;19925;-74
2023/02/10 13:47:55;;;;;;;;;;;;;;;;;;4989170;28;20278;-74
2023/02/10 13:50:21;;;;;;;;;;;;;;;;;;4958331;28;19921;-77
2023/02/10 13:52:47;;;;;;;;;;;;;;;;;;4953502;28;19918;-75
2023/02/10 13:55:14;;;;;;;;;;;;;;;;;;4980793;28;19922;-74
2023/02/10 13:57:40;;;;;;;;;;;;;;;;;;4959833;28;19984;-74
2023/02/10 14:00:06;;;;;;;;;;;;;;;;;;4951239;28;19914;-74
2023/02/10 14:02:32;;;;;;;;;;;;;;;;;;4957429;28;20016;-75
2023/02/10 14:05:00;;;;;;;;;;;;;;;;;;4972270;28;20335;-75
2023/02/10 14:07:31;;;;;;;;;;;;;;;;;;4953827;28;19994;-74
2023/02/10 14:09:57;;;;;;;;;;;;;;;;;;4961118;28;19918;-74
2023/02/10 14:12:23;;;;;;;;;;;;;;;;;;4962991;28;20341;-74
2023/02/10 14:14:50;;;;;;;;;;;;;;;;;;4953858;28;19925;-74
2023/02/10 14:17:19;;;;;;;;;;;;;;;;;;4953865;28;19929;-74
2023/02/10 14:19:46;;;;;;;;;;;;;;;;;;4958332;28;19973;-74
2023/02/10 14:22:12;;;;;;;;;;;;;;;;;;4954569;28;19937;-73
2023/02/10 14:24:38;;;;;;;;;;;;;;;;;;4956746;28;19918;-74
2023/02/10 14:27:04;;;;;;;;;;;;;;;;;;4966797;28;19933;-74
2023/02/10 14:29:30;;;;;;;;;;;;;;;;;;4957527;28;19922;-73
2023/02/10 14:31:57;;;;;;;;;;;;;;;;;;4974996;28;19930;-74
2023/02/10 14:34:23;;;;;;;;;;;;;;;;;;4955168;28;20655;-73
2023/02/10 14:36:54;;;;;;;;;;;;;;;;;;4974977;28;19922;-75
2023/02/10 14:39:20;;;;;;;;;;;;;;;;;;4952527;28;19973;-75
2023/02/10 14:41:46;;;;;;;;;;;;;;;;;;4951437;28;19934;-74
2023/02/10 14:44:12;;;;;;;;;;;;;;;;;;4953918;28;19929;-76
2023/02/10 14:46:39;;;;;;;;;;;;;;;;;;4967106;28;20342;-75
2023/02/10 14:49:05;;;;;;;;;;;;;;;;;;4969728;28;19918;-75
2023/02/10 14:51:32;;;;;;;;;;;;;;;;;;4968097;28;20570;-75
2023/02/10 14:53:58;;;;;;;;;;;;;;;;;;4963029;28;20608;-77
2023/02/10 14:56:24;;;;;;;;;;;;;;;;;;4966621;28;19973;-75
2023/02/10 14:58:51;;;;;;;;;;;;;;;;;;4979574;28;19941;-75
2023/02/10 15:01:18;;;;;;;;;;;;;;;;;;4983963;28;19929;-74
2023/02/10 15:03:45;;;;;;;;;;;;;;;;;;4971445;28;19918;-74
2023/02/10 15:06:11;;;;;;;;;;;;;;;;;;4975968;28;19936;-74
2023/02/10 15:08:37;;;;;;;;;;;;;;;;;;4968443;28;19955;-75
2023/02/10 15:11:03;;;;;;;;;;;;;;;;;;4963548;28;20515;-75
2023/02/10 15:13:30;;;;;;;;;;;;;;;;;;4965093;28;19922;-74
2023/02/10 15:15:56;;;;;;;;;;;;;;;;;;4985768;28;19976;-75
2023/02/10 15:18:22;;;;;;;;;;;;;;;;;;4972320;28;20393;-75
2023/02/10 15:20:48;;;;;;;;;;;;;;;;;;4990138;28;20444;-75
2023/02/10 15:23:15;;;;;;;;;;;;;;;;;;4983017;28;19970;-75
2023/02/10 15:25:42;;;;;;;;;;;;;;;;;;4980060;28;19948;-74
2023/02/10 15:28:08;;;;;;;;;;;;;;;;;;4975876;28;19957;-75
2023/02/10 15:30:34;;;;;;;;;;;;;;;;;;4983255;28;19918;-74
2023/02/10 15:33:01;;;;;;;;;;;;;;;;;;4970120;28;20020;-75
2023/02/10 15:35:27;;;;;;;;;;;;;;;;;;4971711;28;19921;-75
2023/02/10 15:37:53;;;;;;;;;;;;;;;;;;4970501;28;20352;-74
2023/02/10 15:40:19;;;;;;;;;;;;;;;;;;4971577;28;20526;-76
2023/02/10 15:42:46;;;;;;;;;;;;;;;;;;4988328;28;20322;-75
2023/02/10 15:45:12;;;;;;;;;;;;;;;;;;4971228;28;19988;-74
2023/02/10 15:47:38;;;;;;;;;;;;;;;;;;4964577;28;20425;-74
2023/02/10 15:50:05;;;;;;;;;;;;;;;;;;4970680;28;19917;-74
2023/02/10 15:52:31;;;;;;;;;;;;;;;;;;4963705;28;19918;-75
2023/02/10 15:54:57;;;;;;;;;;;;;;;;;;4964384;28;19918;-75
2023/02/10 15:57:23;;;;;;;;;;;;;;;;;;4970834;28;19922;-75
2023/02/10 15:59:51;;;;;;;;;;;;;;;;;;4971609;28;19922;-75
2023/02/10 16:02:17;;;;;;;;;;;;;;;;;;4979582;28;19926;-75
2023/02/10 16:04:45;;;;;;;;;;;;;;;;;;4963760;28;19964;-74
2023/02/10 16:07:12;;;;;;;;;;;;;;;;;;4989925;28;19980;-74
2023/02/10 16:09:38;;;;;;;;;;;;;;;;;;4966346;28;20278;-74
2023/02/10 16:12:04;;;;;;;;;;;;;;;;;;4983162;28;19914;-74
2023/02/10 16:14:30;;;;;;;;;;;;;;;;;;4964151;28;19929;-75
2023/02/10 16:16:56;;;;;;;;;;;;;;;;;;4976260;28;19933;-74
2023/02/10 16:19:23;;;;;;;;;;;;;;;;;;4937214;28;19938;-74
2023/02/10 16:21:49;;;;;;;;;;;;;;;;;;4941102;28;19930;-76
2023/02/10 16:24:15;;;;;;;;;;;;;;;;;;4946476;28;20021;-75
2023/02/10 16:26:41;;;;;;;;;;;;;;;;;;4939699;28;19919;-75
2023/02/10 16:29:08;;;;;;;;;;;;;;;;;;4942710;28;19922;-74
2023/02/10 16:31:34;;;;;;;;;;;;;;;;;;4954983;28;19921;-74
2023/02/10 16:34:00;;;;;;;;;;;;;;;;;;4937115;28;19930;-76
2023/02/10 16:36:26;;;;;;;;;;;;;;;;;;4946973;28;19954;-75
2023/02/10 16:38:53;;;;;;;;;;;;;;;;;;4960472;28;19925;-75
2023/02/10 16:41:21;;;;;;;;;;;;;;;;;;4945910;28;19922;-75
2023/02/10 16:43:47;;;;;;;;;;;;;;;;;;4961322;28;19937;-74
2023/02/10 16:46:13;;;;;;;;;;;;;;;;;;4956949;28;20342;-74